Relevés horaires Beauvechain (Belgique)


Relevés horaires à Beauvechain - Jeudi 11 Avr. 2019
Heure UTC1 Température [°C] Vent [km/h] Hum. [%] Pres.4 [hPa] Visi. [Km] Nébu. [octa] Préc.5 [mm] Cond.
2m. Res. Ros. Dir.2 Vit. Moy. Raf.3
23:00 2.9 2.9 -2.3 NE 3.7 -- 7.4 69 1024.5(0.5/3h) 18 -- -- --
22:00 3.7 3.7 -2.3 NE 3.7 -- 5.6 65 1024.2(0.5/3h) 20 -- -- --
21:00 4.1 4.1 -2.0 NNE 3.7 -- 9.3 64 1024(0.8/3h) 20 -- -- --
20:00 4.9 4.9 -1.3 N 3.7 -- 5.6 64 1023.8(1.0/3h) 20 -- -- --
19:00 6.5 6.5 -1.4 NE 3.7 -- 9.3 57 1023.5(0.9/3h) 20 -- -- --
18:00 8.3 7.6 -1.7 NE 5.6 -- 14.8 49 1022.8(0.3/3h) 20 -- -- --
17:00 9.8 8.5 -2.3 NE 9.3 -- 14.8 43 1022.6(-0.1/3h) 20 -- -- --
16:00 10.4 9.6 -2.3 NE 7.4 -- 14.8 41 1022.3(-0.7/3h) 20 1/8 -- --
16:00 10.4 9.6 -2.3 NE 7.4 -- 14.8 41 1022.3(-0.7/3h) 20 1/8 -- --
15:00 10.7 9.6 -1.9 NNE 9.3 -- 14.8 41 1022.5(-0.7/3h) 20 1/8 -- --
15:00 10.7 9.6 -1.9 NNE 9.3 -- 14.8 41 1022.5(-0.7/3h) 20 1/8 -- --
14:00 10.3 9.1 -2.4 NE 9.3 -- 14.8 41 1022.6(-0.5/3h) 20 1/8 -- --
13:00 9.3 8.3 -1.8 NNE 7.4 -- 14.8 46 1023.1(-0.3/3h) 20 1/8 -- --
12:00 9.4 8 -1.6 NE 9.3 -- 18.5 46 1023.2(-0.2/3h) 20 1/8 -- --
12:00 9.4 8 -1.6 NE 9.3 -- 18.5 46 1023.2(-0.2/3h) 20 1/8 -- --
11:00 8.7 7.2 -1.7 ENE 9.3 -- 18.5 48 1023.2(0.0/3h) 15 1/8 -- --
10:00 7.4 6.1 0.9 NE 7.4 -- 11.1 63 1023.5(0.4/3h) 15 1/8 -- --
09:00 5.4 4.3 0.2 NNE 5.6 -- 9.3 69 1023.7(1.0/3h) 15 0/8 -- --
08:00 3.7 2.4 -0.4 NE 5.6 -- 9.3 75 1023.5(1.2/3h) 15 0/8 -- --
07:00 1.8 0.2 -1.3 NE 5.6 -- 9.3 80 1023.3(1.2/3h) 15 0/8 -- --
06:00 0.2 0.2 -1.6 NNE 3.7 -- 9.3 88 1023(1.0/3h) 15 0/8 -- --
05:00 -0.3 -0.3 -2.7 NNO 3.7 -- 5.6 84 1022.6(0.9/3h) 20 -- -- --
04:00 0.2 0.2 -2.5 NNE 3.7 -- 5.6 82 1022.2(0.8/3h) 20 -- -- --
03:00 0.6 0.6 -2.4 NNE 3.7 -- 9.3 80 1022(0.6/3h) 20 -- -- --

1 Coordinated Universal Time. Actuellement il est 15:00 locale et 14:00 UTC.

2 Le vent souffle depuis la direction indiquée vers la direction oposée.

3 Les rafales max. sont disponible 40 min après l'heure du relevé.

4 Pour les stations d'altitude (plus de 600m) le géopotentiel du niveau le plus proche de la pression obligatoire est indiqué.

5 Les stations disposant d'un diffuseur peuvent indiquer "trace". Cela signifie que des précipitations ont touchés le sol mais que la quantité est inférieure à 0.1 mm.

Récapitulatif de la journée
Température [°C] Vent [km/h] Ensoleillement4 [h] Precipitations totale5 [mm] Pression [Hpa]
Min1 Max.2 Moy.3 Max. Min Max.
-0.4 10.9 0 18.5 0 h 0 min 0 1022.0 1024.5

1 Température minimale relevée entre 18:00 UTC la veille et 18:00 UTC le jour donné.

2 Température maximale relevée entre 06:00 UTC le jour donné et 06:00 UTC le lendemain.

3 Vent moyen de la journée basé sur les relevés horaires.

4 Ensoleillement en heures relevé entre 06:00 UTC la veille et 06:00 UTC le jour donné.

5 Précipitations totales tombées entre 06:00 UTC la jour donné et 06:00 UTC le lendemain.

Graphiques horaires